createdAt,value
2022-12-01T00:03:50.000Z,27.67
2022-12-01T00:05:51.000Z,28.77
2022-12-01T00:07:50.000Z,30.88
2022-12-01T00:09:57.000Z,30.03
2022-12-01T00:11:58.000Z,27.53
2022-12-01T00:13:54.000Z,25.65
2022-12-01T00:16:23.000Z,25.95
2022-12-01T00:18:46.000Z,29.2
2022-12-01T00:21:12.000Z,26.4
2022-12-01T00:23:37.000Z,29.35
2022-12-01T00:26:04.000Z,25.37
2022-12-01T00:28:29.000Z,27
2022-12-01T00:30:54.000Z,23.73
2022-12-01T00:33:20.000Z,24.37
2022-12-01T00:35:46.000Z,23.75
2022-12-01T00:38:13.000Z,24.2
2022-12-01T00:40:38.000Z,22.77
2022-12-01T00:43:02.000Z,20.5
2022-12-01T00:45:29.000Z,23.32
2022-12-01T00:47:54.000Z,26.73
2022-12-01T00:50:21.000Z,27.47
2022-12-01T00:52:45.000Z,26.97
2022-12-01T00:55:12.000Z,24.95
2022-12-01T00:57:38.000Z,26.5
2022-12-01T01:00:44.000Z,25.6
2022-12-01T01:02:45.000Z,26.73
2022-12-01T01:04:57.000Z,29.13
2022-12-01T01:07:21.000Z,27.77
2022-12-01T01:09:45.000Z,27.27
2022-12-01T01:12:13.000Z,26.33
2022-12-01T01:14:37.000Z,30.17
2022-12-01T01:17:02.000Z,27.5
2022-12-01T01:19:29.000Z,27.15
2022-12-01T01:21:54.000Z,24.55
2022-12-01T01:24:21.000Z,29.87
2022-12-01T01:26:51.000Z,25.02
2022-12-01T01:29:14.000Z,25.02
2022-12-01T01:31:40.000Z,26.2
2022-12-01T01:34:05.000Z,22.33
2022-12-01T01:36:31.000Z,23.23
2022-12-01T01:38:55.000Z,25.35
2022-12-01T01:41:22.000Z,27.25
2022-12-01T01:43:47.000Z,25.02
2022-12-01T01:46:12.000Z,21.97
2022-12-01T01:48:39.000Z,24.93
2022-12-01T01:51:09.000Z,29.1
2022-12-01T01:53:29.000Z,30.37
2022-12-01T01:55:55.000Z,25
2022-12-01T01:58:23.000Z,22.27
2022-12-01T02:01:01.000Z,23.95
2022-12-01T02:03:30.000Z,23.22
2022-12-01T02:05:41.000Z,22.77
2022-12-01T02:08:09.000Z,19.87
2022-12-01T02:10:31.000Z,20.1
2022-12-01T02:12:56.000Z,20.57
2022-12-01T02:15:26.000Z,21.25
2022-12-01T02:17:48.000Z,21.97
2022-12-01T02:20:16.000Z,18.77
2022-12-01T02:22:49.000Z,22.73
2022-12-01T02:25:07.000Z,22.63
2022-12-01T02:27:31.000Z,19.77
2022-12-01T02:29:57.000Z,21.9
2022-12-01T02:32:26.000Z,18.95
2022-12-01T02:34:48.000Z,18.57
2022-12-01T02:37:14.000Z,20.1
2022-12-01T02:39:40.000Z,17.97
2022-12-01T02:42:06.000Z,18.17
2022-12-01T02:44:32.000Z,17.8
2022-12-01T02:46:57.000Z,16.97
2022-12-01T02:49:23.000Z,18.27
2022-12-01T02:51:48.000Z,18.35
2022-12-01T02:54:15.000Z,19.55
2022-12-01T02:56:40.000Z,20.3
2022-12-01T02:59:07.000Z,23.33
2022-12-01T03:02:06.000Z,22.48
2022-12-01T03:04:30.000Z,19.98
2022-12-01T03:06:58.000Z,20.77
2022-12-01T03:09:19.000Z,24.9
2022-12-01T03:11:43.000Z,24.27
2022-12-01T03:13:53.000Z,21.27
2022-12-01T03:16:13.000Z,22.77
2022-12-01T03:18:35.000Z,21.42
2022-12-01T03:20:57.000Z,19.57
2022-12-01T03:23:24.000Z,18.82
2022-12-01T03:25:50.000Z,21
2022-12-01T03:28:16.000Z,20.67
2022-12-01T03:30:46.000Z,20.63
2022-12-01T03:33:09.000Z,21.17
2022-12-01T03:35:33.000Z,19.75
2022-12-01T03:37:58.000Z,20.43
2022-12-01T03:40:27.000Z,19.23
2022-12-01T03:42:50.000Z,18.42
2022-12-01T03:45:16.000Z,18.92
2022-12-01T03:47:41.000Z,20.15
2022-12-01T03:50:08.000Z,18
2022-12-01T03:52:33.000Z,19.3
2022-12-01T03:54:59.000Z,18.42
2022-12-01T03:57:25.000Z,19.33
2022-12-01T03:59:52.000Z,17.93
2022-12-01T04:02:24.000Z,19.52
2022-12-01T04:04:41.000Z,20.2
2022-12-01T04:07:09.000Z,19.5
2022-12-01T04:09:33.000Z,22.32
2022-12-01T04:11:59.000Z,20.02
2022-12-01T04:14:25.000Z,21.8
2022-12-01T04:16:56.000Z,20.75
2022-12-01T04:19:17.000Z,20.35
2022-12-01T04:21:43.000Z,18.82
2022-12-01T04:24:09.000Z,20.53
2022-12-01T04:26:33.000Z,22.03
2022-12-01T04:28:58.000Z,25.05
2022-12-01T04:31:25.000Z,32.42
2022-12-01T04:33:51.000Z,43.83
2022-12-01T04:36:17.000Z,50.07
2022-12-01T04:38:42.000Z,40.88
2022-12-01T04:41:09.000Z,54.35
2022-12-01T04:43:34.000Z,53.63
2022-12-01T04:45:59.000Z,52.8
2022-12-01T04:48:26.000Z,57.08
2022-12-01T04:50:52.000Z,52.03
2022-12-01T04:53:16.000Z,54.07
2022-12-01T04:55:42.000Z,55.27
2022-12-01T04:58:08.000Z,59.58
2022-12-01T05:00:53.000Z,51.15
2022-12-01T05:03:06.000Z,55.6
2022-12-01T05:05:27.000Z,49.2
2022-12-01T05:07:51.000Z,56.58
2022-12-01T05:10:19.000Z,53.08
2022-12-01T05:12:42.000Z,49.53
2022-12-01T05:15:13.000Z,50.9
2022-12-01T05:17:35.000Z,53.73
2022-12-01T05:19:59.000Z,56.73
2022-12-01T05:22:26.000Z,48.38
2022-12-01T05:24:51.000Z,44.57
2022-12-01T05:27:17.000Z,43.23
2022-12-01T05:29:42.000Z,46.92
2022-12-01T05:32:08.000Z,47.9
2022-12-01T05:34:33.000Z,41.03
2022-12-01T05:36:59.000Z,39.63
2022-12-01T05:39:25.000Z,41.25
2022-12-01T05:41:51.000Z,36.13
2022-12-01T05:44:16.000Z,45.6
2022-12-01T05:46:42.000Z,39.13
2022-12-01T05:49:08.000Z,46.05
2022-12-01T05:51:36.000Z,37.85
2022-12-01T05:54:00.000Z,37.47
2022-12-01T05:56:26.000Z,39.27
2022-12-01T05:58:53.000Z,34.45
2022-12-01T06:01:42.000Z,34.27
2022-12-01T06:03:49.000Z,32.83
2022-12-01T06:06:12.000Z,38.27
2022-12-01T06:08:35.000Z,33.83
2022-12-01T06:11:01.000Z,35.7
2022-12-01T06:13:27.000Z,32.43
2022-12-01T06:15:56.000Z,34.4
2022-12-01T06:18:20.000Z,32.55
2022-12-01T06:20:59.000Z,39.1
2022-12-01T06:23:17.000Z,34.53
2022-12-01T06:25:41.000Z,34.23
2022-12-01T06:28:02.000Z,34.73
2022-12-01T06:30:53.000Z,34.3
2022-12-01T06:33:13.000Z,38.53
2022-12-01T06:35:35.000Z,35.6
2022-12-01T06:37:52.000Z,35.03
2022-12-01T06:40:13.000Z,36.37
2022-12-01T06:42:37.000Z,33.48
2022-12-01T06:45:00.000Z,29.57
2022-12-01T06:47:31.000Z,34.1
2022-12-01T06:49:55.000Z,31.37
2022-12-01T06:52:19.000Z,34
2022-12-01T06:54:47.000Z,34.97
2022-12-01T06:57:11.000Z,30.4
2022-12-01T06:59:41.000Z,32.73
2022-12-01T07:02:42.000Z,33.5
2022-12-01T07:05:13.000Z,36.77
2022-12-01T07:07:41.000Z,32.63
2022-12-01T07:10:12.000Z,37.65
2022-12-01T07:12:46.000Z,33.42
2022-12-01T07:15:12.000Z,31.07
2022-12-01T07:17:46.000Z,36.03
2022-12-01T07:19:58.000Z,33.78
2022-12-01T07:22:23.000Z,31.8
2022-12-01T07:24:44.000Z,32.03
2022-12-01T07:27:07.000Z,36.88
2022-12-01T07:29:25.000Z,35.77
2022-12-01T07:32:00.000Z,29.63
2022-12-01T07:34:03.000Z,33.45
2022-12-01T07:36:06.000Z,35.5
2022-12-01T07:38:30.000Z,31.4
2022-12-01T07:41:01.000Z,35.7
2022-12-01T07:45:47.000Z,31.8
2022-12-01T07:48:13.000Z,34.07
2022-12-01T07:50:39.000Z,31.37
2022-12-01T07:53:04.000Z,32.2
2022-12-01T07:55:29.000Z,35.23
2022-12-01T07:57:55.000Z,31.87
2022-12-01T08:00:38.000Z,32.83
2022-12-01T08:02:59.000Z,30.02
2022-12-01T08:05:15.000Z,30.52
2022-12-01T08:10:11.000Z,32.1
2022-12-01T08:12:35.000Z,30.2
2022-12-01T08:14:59.000Z,30.12
2022-12-01T08:17:26.000Z,27.07
2022-12-01T08:19:52.000Z,30.3
2022-12-01T08:22:17.000Z,29.9
2022-12-01T08:24:43.000Z,28.57
2022-12-01T08:27:09.000Z,29.43
2022-12-01T08:29:34.000Z,27.8
2022-12-01T08:34:26.000Z,25.4
2022-12-01T08:36:51.000Z,27.73
2022-12-01T08:39:17.000Z,24.77
2022-12-01T08:41:43.000Z,26.42
2022-12-01T08:44:09.000Z,32.63
2022-12-01T08:46:34.000Z,27.8
2022-12-01T08:48:59.000Z,25.3
2022-12-01T08:51:26.000Z,23.8
2022-12-01T08:53:51.000Z,25.75
2022-12-01T08:56:20.000Z,24.9
2022-12-01T08:58:43.000Z,25
2022-12-01T09:01:26.000Z,28.2
2022-12-01T09:03:46.000Z,25.5
2022-12-01T09:05:59.000Z,24.4
2022-12-01T09:08:26.000Z,21.1
2022-12-01T09:10:53.000Z,24.25
2022-12-01T09:13:19.000Z,22.33
2022-12-01T09:15:43.000Z,24.87
2022-12-01T09:18:10.000Z,22.3
2022-12-01T09:20:36.000Z,23.77
2022-12-01T09:22:59.000Z,24.07
2022-12-01T09:25:26.000Z,22.73
2022-12-01T09:27:52.000Z,22.77
2022-12-01T09:30:23.000Z,22.48
2022-12-01T09:32:44.000Z,22.5
2022-12-01T09:35:09.000Z,22.67
2022-12-01T09:37:36.000Z,24.87
2022-12-01T09:40:06.000Z,23.5
2022-12-01T09:42:32.000Z,25.43
2022-12-01T09:44:58.000Z,25.7
2022-12-01T09:47:26.000Z,23.53
2022-12-01T09:49:51.000Z,24.98
2022-12-01T09:52:18.000Z,23.02
2022-12-01T09:54:47.000Z,22.5
2022-12-01T09:57:10.000Z,19.42
2022-12-01T09:59:36.000Z,24.75
2022-12-01T10:02:04.000Z,22.77
2022-12-01T10:04:31.000Z,26.2
2022-12-01T10:06:54.000Z,25.7
2022-12-01T10:09:22.000Z,23.4
2022-12-01T10:11:46.000Z,28.73
2022-12-01T10:14:13.000Z,27.4
2022-12-01T10:16:38.000Z,28.85
2022-12-01T10:19:07.000Z,31
2022-12-01T10:21:33.000Z,23.18
2022-12-01T10:26:24.000Z,37.45
2022-12-01T10:28:49.000Z,40.45
2022-12-01T10:33:47.000Z,44.1
2022-12-01T10:36:13.000Z,48.03
2022-12-01T10:38:39.000Z,36.4
2022-12-01T10:41:05.000Z,33.7
2022-12-01T10:43:30.000Z,33.92
2022-12-01T10:45:55.000Z,37.5
2022-12-01T10:48:21.000Z,34.5
2022-12-01T10:50:47.000Z,34.75
2022-12-01T10:53:15.000Z,33.35
2022-12-01T10:55:42.000Z,33.35
2022-12-01T10:58:07.000Z,34.03
2022-12-01T11:00:56.000Z,35.47
2022-12-01T11:03:09.000Z,33.1
2022-12-01T11:05:44.000Z,31.15
2022-12-01T11:07:53.000Z,29.48
2022-12-01T11:10:23.000Z,33.33
2022-12-01T11:12:45.000Z,30.5
2022-12-01T11:15:14.000Z,29.13
2022-12-01T11:17:37.000Z,30.77
2022-12-01T11:20:04.000Z,27.83
2022-12-01T11:22:31.000Z,28.98
2022-12-01T11:24:53.000Z,27.05
2022-12-01T11:27:20.000Z,29.5
2022-12-01T11:29:51.000Z,29.18
2022-12-01T11:32:22.000Z,31.7
2022-12-01T11:34:44.000Z,29.87
2022-12-01T11:37:13.000Z,27.77
2022-12-01T11:39:40.000Z,26.57
2022-12-01T11:42:07.000Z,26.1
2022-12-01T11:44:31.000Z,25.72
2022-12-01T11:46:57.000Z,26.7
2022-12-01T11:49:24.000Z,27.67
2022-12-01T11:51:51.000Z,27.65
2022-12-01T11:54:17.000Z,34
2022-12-01T11:56:46.000Z,35.15
2022-12-01T11:59:16.000Z,40.1
2022-12-01T12:02:13.000Z,41.73
2022-12-01T12:04:40.000Z,38.13
2022-12-01T12:07:11.000Z,33.3
2022-12-01T12:09:41.000Z,35.73
2022-12-01T12:12:11.000Z,31.95
2022-12-01T12:17:12.000Z,28.6
2022-12-01T12:19:45.000Z,35.15
2022-12-01T12:22:22.000Z,31.5
2022-12-01T12:24:42.000Z,28.35
2022-12-01T12:27:16.000Z,31.37
2022-12-01T12:29:44.000Z,32.8
2022-12-01T12:32:25.000Z,30.5
2022-12-01T12:34:40.000Z,26.25
2022-12-01T12:39:40.000Z,26.97
2022-12-01T12:42:06.000Z,26.68
2022-12-01T12:44:26.000Z,26.17
2022-12-01T12:49:34.000Z,24.77
2022-12-01T12:54:36.000Z,24.9
2022-12-01T12:56:46.000Z,24.63
2022-12-01T12:58:57.000Z,30.4
2022-12-01T13:01:41.000Z,33.65
2022-12-01T13:03:59.000Z,30.65
2022-12-01T13:06:20.000Z,30.17
2022-12-01T13:08:46.000Z,27.87
2022-12-01T13:11:15.000Z,27.87
2022-12-01T13:13:43.000Z,29.4
2022-12-01T13:16:15.000Z,28.98
2022-12-01T13:18:46.000Z,28.07
2022-12-01T13:21:19.000Z,29.5
2022-12-01T13:23:41.000Z,28.7
2022-12-01T13:26:08.000Z,27.82
2022-12-01T13:28:39.000Z,27.48
2022-12-01T13:33:39.000Z,29.07
2022-12-01T13:36:06.000Z,30.27
2022-12-01T13:38:42.000Z,26.48
2022-12-01T13:41:08.000Z,26.55
2022-12-01T13:43:38.000Z,28.95
2022-12-01T13:48:26.000Z,25.65
2022-12-01T13:50:53.000Z,27.27
2022-12-01T13:53:22.000Z,32.8
2022-12-01T13:55:49.000Z,28.27
2022-12-01T13:58:29.000Z,30
2022-12-01T14:01:30.000Z,28.42
2022-12-01T14:04:10.000Z,29.6
2022-12-01T14:06:44.000Z,64.1
2022-12-01T14:09:20.000Z,65.42
2022-12-01T14:12:01.000Z,103.77
2022-12-01T14:17:21.000Z,55.65
2022-12-01T14:20:07.000Z,61.63
2022-12-01T14:22:46.000Z,52.58
2022-12-01T14:25:34.000Z,51.7
2022-12-01T14:28:19.000Z,48.87
2022-12-01T14:28:23.000Z,44.33
2022-12-01T14:31:06.000Z,41.15
2022-12-01T14:33:57.000Z,46.77
2022-12-01T14:36:27.000Z,44.38
2022-12-01T14:38:55.000Z,44.77
2022-12-01T14:41:31.000Z,40.9
2022-12-01T14:46:51.000Z,39.98
2022-12-01T14:49:31.000Z,41.05
2022-12-01T14:52:02.000Z,38.8
2022-12-01T14:54:47.000Z,38.65
2022-12-01T14:57:23.000Z,38.28
2022-12-01T15:00:02.000Z,41.73
2022-12-01T15:00:07.000Z,37.5
2022-12-01T15:02:57.000Z,39.3
2022-12-01T15:05:49.000Z,39.6
2022-12-01T15:09:10.000Z,39
2022-12-01T15:12:02.000Z,44.33
2022-12-01T15:14:33.000Z,40.58
2022-12-01T15:17:09.000Z,37.5
2022-12-01T15:17:13.000Z,41.08
2022-12-01T15:19:44.000Z,39.7
2022-12-01T15:24:51.000Z,39
2022-12-01T15:27:28.000Z,39.03
2022-12-01T15:32:45.000Z,40.25
2022-12-01T15:32:50.000Z,40.5
2022-12-01T15:35:20.000Z,38.65
2022-12-01T15:38:02.000Z,39.4
2022-12-01T15:40:52.000Z,39.27
2022-12-01T15:43:38.000Z,35.93
2022-12-01T15:46:21.000Z,37.23
2022-12-01T15:49:06.000Z,37
2022-12-01T15:49:10.000Z,37.17
2022-12-01T15:51:54.000Z,36.43
2022-12-01T15:54:45.000Z,39.65
2022-12-01T15:57:40.000Z,38.13
2022-12-01T16:00:19.000Z,39.6
2022-12-01T16:03:03.000Z,38.57
2022-12-01T16:05:42.000Z,42.1
2022-12-01T16:08:20.000Z,38.98
2022-12-01T16:08:24.000Z,43.45
2022-12-01T16:13:32.000Z,40.43
2022-12-01T16:16:03.000Z,40.83
2022-12-01T16:18:33.000Z,42.6
2022-12-01T16:21:07.000Z,42.33
2022-12-01T16:23:34.000Z,37.9
2022-12-01T16:25:56.000Z,39.08
2022-12-01T16:29:01.000Z,35.75
2022-12-01T16:32:20.000Z,39.92
2022-12-01T16:35:55.000Z,32.67
2022-12-01T16:35:58.000Z,33.47
2022-12-01T16:39:18.000Z,34.65
2022-12-01T16:42:36.000Z,34.45
2022-12-01T16:42:40.000Z,35
2022-12-01T16:45:25.000Z,30.3
2022-12-01T16:48:28.000Z,31
2022-12-01T16:49:56.000Z,32.28
2022-12-01T16:52:47.000Z,30.23
2022-12-01T16:55:57.000Z,28.77
2022-12-01T16:57:24.000Z,28.57
2022-12-01T17:00:20.000Z,27.67
2022-12-01T17:03:21.000Z,30.37
2022-12-01T17:04:52.000Z,25.13
2022-12-01T17:06:32.000Z,26.77
2022-12-01T17:08:58.000Z,27.85
2022-12-01T17:11:23.000Z,26.1
2022-12-01T17:13:50.000Z,28.03
2022-12-01T17:16:22.000Z,29.5
2022-12-01T17:18:42.000Z,32.42
2022-12-01T17:21:08.000Z,35.23
2022-12-01T17:23:33.000Z,33.8
2022-12-01T17:25:57.000Z,32.3
2022-12-01T17:28:23.000Z,32.53
2022-12-01T17:30:58.000Z,33.9
2022-12-01T17:33:26.000Z,31.6
2022-12-01T17:35:46.000Z,33.57
2022-12-01T17:38:09.000Z,29.67
2022-12-01T17:40:33.000Z,27.52
2022-12-01T17:42:59.000Z,24.63
2022-12-01T17:45:23.000Z,24.2
2022-12-01T17:47:51.000Z,25.6
2022-12-01T17:50:16.000Z,25.17
2022-12-01T17:52:43.000Z,23.25
2022-12-01T17:55:15.000Z,24.15
2022-12-01T17:57:36.000Z,21.7
2022-12-01T18:00:01.000Z,18.62
2022-12-01T18:02:44.000Z,19.65
2022-12-01T18:05:07.000Z,21.07
2022-12-01T18:07:32.000Z,17.6
2022-12-01T18:09:54.000Z,16.48
2022-12-01T18:12:14.000Z,15.85
2022-12-01T18:14:34.000Z,16.53
2022-12-01T18:16:59.000Z,14.83
2022-12-01T18:19:25.000Z,13.95
2022-12-01T18:21:51.000Z,13
2022-12-01T18:24:20.000Z,13.53
2022-12-01T18:26:43.000Z,12
2022-12-01T18:29:14.000Z,12.37
2022-12-01T18:31:46.000Z,12.5
2022-12-01T18:34:10.000Z,9.9
2022-12-01T18:36:25.000Z,10.23
2022-12-01T18:38:51.000Z,8.48
2022-12-01T18:41:23.000Z,8.73
2022-12-01T18:44:29.000Z,7.53
2022-12-01T18:47:30.000Z,7.95
2022-12-01T18:50:27.000Z,7.2
2022-12-01T18:53:26.000Z,8.08
2022-12-01T18:55:32.000Z,7.97
2022-12-01T18:56:55.000Z,7.1
2022-12-01T18:58:23.000Z,6.28
2022-12-01T19:00:59.000Z,7.15
2022-12-01T19:03:51.000Z,6.95
2022-12-01T19:06:51.000Z,6.8
2022-12-01T19:09:42.000Z,7.53
2022-12-01T19:10:58.000Z,7.47
2022-12-01T19:12:52.000Z,6.05
2022-12-01T19:15:18.000Z,6.05
2022-12-01T19:17:44.000Z,5.7
2022-12-01T19:20:12.000Z,5.5
2022-12-01T19:23:07.000Z,6.03
2022-12-01T19:25:36.000Z,4.7
2022-12-01T19:27:27.000Z,4.3
2022-12-01T19:29:52.000Z,6
2022-12-01T19:32:18.000Z,5.17
2022-12-01T19:34:44.000Z,5.03
2022-12-01T19:37:32.000Z,6.75
2022-12-01T19:40:16.000Z,5.5
2022-12-01T19:42:51.000Z,5.17
2022-12-01T19:44:30.000Z,4.17
2022-12-01T19:46:53.000Z,6.6
2022-12-01T19:49:19.000Z,4.63
2022-12-01T19:51:46.000Z,4.87
2022-12-01T19:54:38.000Z,4.28
2022-12-01T19:57:30.000Z,4.6
2022-12-01T20:00:23.000Z,4.03
2022-12-01T20:03:46.000Z,5.67
2022-12-01T20:06:46.000Z,4.65
2022-12-01T20:06:50.000Z,3.35
2022-12-01T20:09:43.000Z,3.87
2022-12-01T20:12:35.000Z,4.3
2022-12-01T20:15:37.000Z,3
2022-12-01T20:18:31.000Z,3.9
2022-12-01T20:18:34.000Z,3.08
2022-12-01T20:21:39.000Z,4.55
2022-12-01T20:24:52.000Z,3.42
2022-12-01T20:27:47.000Z,5.15
2022-12-01T20:30:38.000Z,6.1
2022-12-01T20:30:42.000Z,6.8
2022-12-01T20:33:44.000Z,4.53
2022-12-01T20:36:38.000Z,4.73
2022-12-01T20:39:41.000Z,5.53
2022-12-01T20:42:40.000Z,5.85
2022-12-01T20:45:20.000Z,4.92
2022-12-01T20:45:23.000Z,4.13
2022-12-01T20:48:11.000Z,3.93
2022-12-01T20:51:08.000Z,6.25
2022-12-01T20:53:51.000Z,2.98
2022-12-01T20:56:29.000Z,7.03
2022-12-01T20:59:10.000Z,5.5
2022-12-01T21:01:48.000Z,8.73
2022-12-01T21:04:32.000Z,4.17
2022-12-01T21:07:16.000Z,3.92
2022-12-01T21:07:20.000Z,4.2
2022-12-01T21:10:02.000Z,4.97
2022-12-01T21:12:48.000Z,4.73
2022-12-01T21:15:53.000Z,3.77
2022-12-01T21:18:27.000Z,5.28
2022-12-01T21:20:49.000Z,6.47
2022-12-01T21:23:02.000Z,9.27
2022-12-01T21:25:18.000Z,4.53
2022-12-01T21:27:20.000Z,4.08
2022-12-01T21:29:19.000Z,3.8
2022-12-01T21:33:12.000Z,3.8
2022-12-01T21:34:54.000Z,4.3
2022-12-01T21:36:27.000Z,4.47
2022-12-01T21:39:32.000Z,4.15
2022-12-01T21:41:05.000Z,3.2
2022-12-01T21:43:54.000Z,4.8
2022-12-01T21:46:38.000Z,3.7
2022-12-01T21:49:14.000Z,5
2022-12-01T21:50:45.000Z,5.9
2022-12-01T21:53:11.000Z,5.8
2022-12-01T21:55:37.000Z,5.03
2022-12-01T21:58:03.000Z,5.85
2022-12-01T22:03:11.000Z,6.47
2022-12-01T22:05:34.000Z,6.55
2022-12-01T22:07:46.000Z,5.77
2022-12-01T22:10:13.000Z,6.9
2022-12-01T22:12:37.000Z,7.78
2022-12-01T22:15:04.000Z,6.5
2022-12-01T22:17:29.000Z,7.65
2022-12-01T22:19:55.000Z,7.12
2022-12-01T22:22:21.000Z,7.13
2022-12-01T22:24:47.000Z,7.33
2022-12-01T22:27:13.000Z,7.03
2022-12-01T22:29:39.000Z,10.35
2022-12-01T22:32:04.000Z,8.13
2022-12-01T22:34:29.000Z,8.38
2022-12-01T22:36:55.000Z,9.47
2022-12-01T22:39:30.000Z,7.43
2022-12-01T22:42:04.000Z,9.15
2022-12-01T22:44:13.000Z,8.53
2022-12-01T22:46:39.000Z,7
2022-12-01T22:49:04.000Z,8.33
2022-12-01T22:51:30.000Z,7.9
2022-12-01T22:53:56.000Z,9.38
2022-12-01T22:56:22.000Z,8.73
2022-12-01T22:58:48.000Z,7.42
2022-12-01T23:01:13.000Z,8.5
2022-12-01T23:03:39.000Z,9.53
2022-12-01T23:06:04.000Z,11.73
2022-12-01T23:08:30.000Z,11.3
2022-12-01T23:10:57.000Z,20
2022-12-01T23:13:22.000Z,19.77
2022-12-01T23:15:48.000Z,11.38
2022-12-01T23:18:14.000Z,10.73
2022-12-01T23:20:39.000Z,9.77
2022-12-01T23:23:05.000Z,11.8
2022-12-01T23:25:34.000Z,13.18
2022-12-01T23:27:57.000Z,13.28
2022-12-01T23:30:22.000Z,14.75
2022-12-01T23:32:48.000Z,13.05
2022-12-01T23:35:14.000Z,11.3
2022-12-01T23:37:41.000Z,13.5
2022-12-01T23:40:10.000Z,12
2022-12-01T23:42:31.000Z,12.98
2022-12-01T23:44:57.000Z,10.72
2022-12-01T23:47:23.000Z,14
2022-12-01T23:49:48.000Z,14.13
2022-12-01T23:52:14.000Z,13.87
2022-12-01T23:54:40.000Z,12.67
2022-12-01T23:57:08.000Z,12.33
2022-12-01T23:59:32.000Z,14.2
